createdAt,value
2018-07-30T00:02:03.618Z,65.60
2018-07-30T00:04:37.713Z,65.40
2018-07-30T00:07:14.613Z,65.20
2018-07-30T00:09:44.799Z,64.90
2018-07-30T00:12:20.583Z,64.80
2018-07-30T00:14:54.171Z,65.70
2018-07-30T00:17:23.847Z,66.00
2018-07-30T00:19:53.431Z,66.40
2018-07-30T00:22:32.512Z,66.50
2018-07-30T00:25:02.193Z,66.70
2018-07-30T00:27:32.107Z,67.30
2018-07-30T00:30:07.960Z,67.50
2018-07-30T00:32:42.687Z,67.80
2018-07-30T00:35:12.426Z,67.80
2018-07-30T00:37:49.127Z,68.30
2018-07-30T00:40:23.574Z,68.80
2018-07-30T00:42:53.218Z,69.10
2018-07-30T00:45:23.009Z,69.50
2018-07-30T00:47:53.303Z,69.80
2018-07-30T00:50:22.894Z,70.00
2018-07-30T00:52:52.410Z,70.30
2018-07-30T00:55:22.214Z,70.30
2018-07-30T00:57:57.023Z,70.30
2018-07-30T01:00:26.573Z,70.60
2018-07-30T01:03:03.856Z,70.70
2018-07-30T01:05:49.342Z,70.70
2018-07-30T01:08:23.565Z,70.90
2018-07-30T01:10:53.469Z,71.20
2018-07-30T01:13:23.133Z,71.30
2018-07-30T01:15:52.755Z,71.40
2018-07-30T01:18:22.606Z,71.20
2018-07-30T01:21:05.333Z,71.50
2018-07-30T01:23:35.262Z,71.50
2018-07-30T01:26:17.311Z,71.60
2018-07-30T01:28:52.801Z,71.60
2018-07-30T01:31:22.428Z,71.60
2018-07-30T01:33:52.231Z,72.30
2018-07-30T01:36:21.996Z,71.80
2018-07-30T01:38:52.092Z,71.60
2018-07-30T01:43:58.733Z,72.00
2018-07-30T01:46:28.535Z,71.70
2018-07-30T01:48:58.578Z,72.10
2018-07-30T01:51:39.927Z,71.90
2018-07-30T01:54:10.007Z,71.80
2018-07-30T02:01:57.534Z,71.60
2018-07-30T02:04:33.306Z,72.10
2018-07-30T02:07:03.677Z,71.70
2018-07-30T02:09:38.951Z,71.90
2018-07-30T02:12:14.146Z,72.20
2018-07-30T02:14:49.965Z,71.60
2018-07-30T02:17:19.649Z,71.10
2018-07-30T02:19:50.037Z,71.60
2018-07-30T02:22:26.147Z,71.50
2018-07-30T02:24:56.904Z,72.40
2018-07-30T02:27:26.485Z,72.30
2018-07-30T02:30:00.395Z,72.00
2018-07-30T02:32:30.215Z,72.20
2018-07-30T02:34:59.790Z,72.70
2018-07-30T02:37:29.541Z,72.90
2018-07-30T02:39:59.631Z,73.20
2018-07-30T02:42:29.908Z,73.50
2018-07-30T02:44:59.507Z,74.00
2018-07-30T02:47:31.876Z,74.30
2018-07-30T02:50:01.493Z,74.40
2018-07-30T02:52:31.744Z,74.30
2018-07-30T02:55:01.258Z,74.50
2018-07-30T02:57:30.918Z,74.60
2018-07-30T03:00:16.570Z,74.80
2018-07-30T03:02:48.372Z,74.70
2018-07-30T03:05:23.361Z,75.00
2018-07-30T03:07:53.063Z,75.00
2018-07-30T03:10:22.706Z,75.10
2018-07-30T03:12:52.694Z,75.40
2018-07-30T03:15:31.319Z,75.10
2018-07-30T03:18:00.904Z,75.10
2018-07-30T03:20:30.415Z,74.80
2018-07-30T03:22:59.999Z,74.70
2018-07-30T03:25:29.882Z,74.80
2018-07-30T03:27:59.442Z,74.70
2018-07-30T03:30:39.058Z,74.90
2018-07-30T03:33:22.672Z,75.10
2018-07-30T03:35:52.210Z,75.30
2018-07-30T03:38:22.426Z,75.70
2018-07-30T03:43:20.957Z,75.30
2018-07-30T03:45:50.800Z,75.30
2018-07-30T03:48:25.944Z,75.20
2018-07-30T03:50:55.696Z,75.40
2018-07-30T03:53:25.219Z,75.70
2018-07-30T03:55:54.761Z,75.80
2018-07-30T03:58:36.437Z,76.00
2018-07-30T04:01:06.072Z,76.10
2018-07-30T04:03:35.938Z,76.40
2018-07-30T04:06:05.784Z,76.30
2018-07-30T04:08:48.500Z,75.80
2018-07-30T04:11:18.711Z,76.30
2018-07-30T04:13:55.484Z,76.20
2018-07-30T04:16:25.449Z,76.10
2018-07-30T04:19:00.852Z,76.50
2018-07-30T04:21:30.694Z,76.80
2018-07-30T04:24:00.213Z,76.30
2018-07-30T04:26:29.745Z,76.90
2018-07-30T04:28:59.794Z,76.40
2018-07-30T04:31:43.088Z,75.70
2018-07-30T04:34:12.896Z,76.00
2018-07-30T04:36:49.428Z,76.00
2018-07-30T04:41:50.380Z,75.80
2018-07-30T04:44:25.305Z,75.50
2018-07-30T04:46:54.856Z,75.70
2018-07-30T04:49:24.399Z,76.60
2018-07-30T04:51:54.008Z,76.60
2018-07-30T04:54:31.116Z,76.20
2018-07-30T04:57:08.001Z,76.40
2018-07-30T04:59:38.038Z,76.20
2018-07-30T05:02:07.732Z,76.00
2018-07-30T05:04:44.536Z,75.80
2018-07-30T05:07:14.645Z,75.40
2018-07-30T05:09:44.279Z,75.30
2018-07-30T05:12:14.277Z,75.80
2018-07-30T05:14:44.444Z,75.80
2018-07-30T05:17:20.986Z,75.30
2018-07-30T05:19:50.622Z,74.90
2018-07-30T05:24:56.669Z,75.40
2018-07-30T05:27:26.643Z,74.60
2018-07-30T05:30:02.235Z,75.00
2018-07-30T05:32:31.870Z,74.70
2018-07-30T05:35:01.566Z,75.00
2018-07-30T05:37:40.644Z,76.00
2018-07-30T05:40:10.712Z,75.40
2018-07-30T05:42:40.380Z,75.50
2018-07-30T05:45:10.989Z,75.30
2018-07-30T05:47:40.992Z,75.10
2018-07-30T05:52:40.876Z,75.00
2018-07-30T05:55:11.055Z,74.10
2018-07-30T05:57:42.027Z,73.90
2018-07-30T06:00:11.710Z,74.00
2018-07-30T06:02:41.628Z,75.00
2018-07-30T06:05:11.749Z,75.40
2018-07-30T06:07:41.450Z,75.50
2018-07-30T06:10:11.488Z,76.70
2018-07-30T06:12:54.617Z,76.10
2018-07-30T06:15:30.414Z,73.70
2018-07-30T06:18:03.274Z,72.30
2018-07-30T06:20:42.039Z,73.70
2018-07-30T06:23:16.681Z,74.10
2018-07-30T06:25:46.244Z,73.90
2018-07-30T06:28:23.240Z,74.50
2018-07-30T06:30:52.804Z,74.00
2018-07-30T06:33:24.389Z,71.60
2018-07-30T06:40:53.059Z,70.70
2018-07-30T06:43:22.672Z,70.60
2018-07-30T06:45:52.259Z,70.00
2018-07-30T06:48:21.967Z,70.40
2018-07-30T06:51:05.487Z,71.50
2018-07-30T06:53:35.398Z,69.80
2018-07-30T06:56:05.070Z,70.10
2018-07-30T06:58:34.681Z,70.10
2018-07-30T07:01:04.590Z,70.10
2018-07-30T07:03:47.333Z,69.70
2018-07-30T07:06:17.380Z,69.40
2018-07-30T07:08:46.949Z,70.70
2018-07-30T07:11:24.425Z,69.60
2018-07-30T07:13:54.382Z,69.60
2018-07-30T07:16:31.495Z,69.20
2018-07-30T07:19:01.392Z,69.30
2018-07-30T07:21:31.194Z,71.40
2018-07-30T07:24:01.083Z,71.30
2018-07-30T07:26:30.969Z,69.10
2018-07-30T07:29:07.373Z,68.90
2018-07-30T07:31:44.368Z,69.60
2018-07-30T07:34:14.133Z,69.30
2018-07-30T07:36:48.900Z,71.80
2018-07-30T07:39:24.175Z,71.60
2018-07-30T07:43:19.021Z,68.70
2018-07-30T07:45:55.628Z,68.30
2018-07-30T07:48:25.683Z,70.80
2018-07-30T07:51:01.361Z,71.80
2018-07-30T07:53:30.873Z,67.60
2018-07-30T07:56:07.602Z,70.50
2018-07-30T07:58:37.227Z,70.60
2018-07-30T08:04:13.676Z,70.00
2018-07-30T08:06:43.677Z,70.70
2018-07-30T08:09:13.389Z,71.00
2018-07-30T08:14:12.604Z,71.60
2018-07-30T08:16:42.276Z,67.40
2018-07-30T08:19:12.288Z,68.70
2018-07-30T08:21:46.358Z,69.80
2018-07-30T08:24:16.067Z,68.30
2018-07-30T08:26:52.546Z,67.50
2018-07-30T08:29:22.164Z,66.80
2018-07-30T08:31:51.786Z,67.80
2018-07-30T08:34:22.145Z,67.00
2018-07-30T08:36:51.912Z,66.00
2018-07-30T08:42:14.996Z,64.30
2018-07-30T08:44:44.781Z,66.40
2018-07-30T08:47:14.644Z,66.50
2018-07-30T08:49:49.269Z,67.30
2018-07-30T08:52:19.130Z,66.60
2018-07-30T08:54:48.753Z,65.60
2018-07-30T08:57:18.908Z,63.70
2018-07-30T08:59:48.469Z,65.60
2018-07-30T09:02:18.606Z,64.20
2018-07-30T09:04:48.487Z,63.00
2018-07-30T09:07:18.033Z,64.60
2018-07-30T09:09:47.562Z,65.30
2018-07-30T09:12:24.824Z,65.30
2018-07-30T09:14:54.408Z,65.50
2018-07-30T09:17:24.329Z,65.50
2018-07-30T09:19:53.980Z,65.80
2018-07-30T09:22:23.764Z,65.90
2018-07-30T09:24:53.951Z,65.70
2018-07-30T09:27:37.195Z,65.60
2018-07-30T09:30:07.200Z,65.50
2018-07-30T09:32:36.857Z,64.50
2018-07-30T09:35:06.629Z,65.30
2018-07-30T09:37:45.459Z,65.40
2018-07-30T09:40:15.027Z,64.50
2018-07-30T09:42:44.754Z,64.40
2018-07-30T09:45:14.391Z,64.40
2018-07-30T09:47:44.009Z,63.20
2018-07-30T09:50:13.868Z,63.10
2018-07-30T09:52:52.448Z,61.40
2018-07-30T09:55:22.310Z,61.10
2018-07-30T09:57:51.892Z,56.70
2018-07-30T10:00:26.385Z,59.10
2018-07-30T10:02:56.283Z,58.40
2018-07-30T10:05:25.885Z,56.20
2018-07-30T10:07:55.489Z,56.70
2018-07-30T10:10:25.051Z,55.10
2018-07-30T10:12:54.690Z,58.20
2018-07-30T10:15:24.307Z,56.40
2018-07-30T10:17:54.271Z,56.30
2018-07-30T10:20:23.854Z,57.50
2018-07-30T10:22:53.399Z,57.40
2018-07-30T10:25:23.356Z,57.30
2018-07-30T10:27:52.898Z,57.90
2018-07-30T10:30:22.689Z,57.10
2018-07-30T10:32:52.576Z,57.90
2018-07-30T10:35:22.872Z,58.10
2018-07-30T10:37:52.593Z,58.90
2018-07-30T10:40:22.431Z,58.00
2018-07-30T10:42:51.917Z,58.10
2018-07-30T10:45:21.576Z,56.70
2018-07-30T10:47:51.459Z,57.70
2018-07-30T10:50:21.434Z,57.20
2018-07-30T10:52:50.919Z,55.30
2018-07-30T10:55:20.765Z,57.10
2018-07-30T10:57:50.422Z,57.00
2018-07-30T11:00:28.705Z,52.70
2018-07-30T11:03:04.081Z,49.40
2018-07-30T11:05:33.580Z,47.70
2018-07-30T11:08:03.154Z,45.30
2018-07-30T11:10:32.739Z,44.00
2018-07-30T11:13:03.290Z,44.50
2018-07-30T11:15:33.738Z,44.50
2018-07-30T11:18:03.343Z,44.20
2018-07-30T11:20:33.131Z,43.70
2018-07-30T11:23:03.097Z,43.10
2018-07-30T11:25:32.654Z,42.90
2018-07-30T11:28:02.319Z,43.10
2018-07-30T11:30:31.895Z,43.70
2018-07-30T11:33:10.626Z,44.70
2018-07-30T11:35:40.585Z,45.10
2018-07-30T11:38:10.137Z,45.70
2018-07-30T11:40:41.450Z,46.60
2018-07-30T11:43:11.356Z,44.50
2018-07-30T11:45:41.664Z,43.60
2018-07-30T11:48:11.799Z,44.20
2018-07-30T11:50:41.721Z,44.70
2018-07-30T11:53:11.367Z,45.00
2018-07-30T11:55:40.889Z,46.00
2018-07-30T11:58:10.840Z,46.60
2018-07-30T12:00:49.108Z,44.70
2018-07-30T12:03:19.105Z,45.00
2018-07-30T12:05:48.679Z,47.00
2018-07-30T12:08:18.411Z,43.10
2018-07-30T12:10:48.292Z,41.20
2018-07-30T12:13:17.856Z,40.10
2018-07-30T12:16:56.886Z,39.70
2018-07-30T12:19:26.636Z,39.10
2018-07-30T12:21:56.570Z,40.50
2018-07-30T12:25:45.953Z,43.50
2018-07-30T12:35:13.356Z,41.50
2018-07-30T12:37:43.030Z,46.80
2018-07-30T12:40:12.862Z,48.80
2018-07-30T12:42:42.442Z,47.90
2018-07-30T12:45:12.005Z,49.20
2018-07-30T12:47:41.902Z,49.70
2018-07-30T12:50:11.493Z,43.70
2018-07-30T12:52:41.098Z,42.40
2018-07-30T12:55:20.238Z,41.50
2018-07-30T12:57:49.841Z,41.30
2018-07-30T13:00:20.034Z,41.40
2018-07-30T13:02:49.626Z,40.10
2018-07-30T13:05:22.723Z,42.40
2018-07-30T13:07:52.989Z,45.70
2018-07-30T13:10:22.673Z,42.20
2018-07-30T13:12:52.262Z,44.20
2018-07-30T13:15:22.556Z,44.50
2018-07-30T13:17:52.152Z,39.60
2018-07-30T13:20:21.734Z,40.00
2018-07-30T13:22:51.416Z,42.90
2018-07-30T13:25:21.003Z,39.90
2018-07-30T13:27:50.600Z,39.70
2018-07-30T13:30:20.488Z,43.70
2018-07-30T13:32:50.225Z,42.60
2018-07-30T13:35:20.146Z,40.30
2018-07-30T13:37:50.125Z,41.10
2018-07-30T13:40:19.980Z,40.80
2018-07-30T13:42:56.628Z,40.90
2018-07-30T13:45:26.282Z,41.30
2018-07-30T13:47:56.117Z,41.00
2018-07-30T13:50:25.870Z,41.20
2018-07-30T13:52:55.423Z,40.90
2018-07-30T13:55:25.328Z,40.00
2018-07-30T13:57:54.853Z,39.40
2018-07-30T14:00:29.496Z,38.10
2018-07-30T14:02:59.378Z,38.30
2018-07-30T14:05:28.935Z,39.30
2018-07-30T14:07:58.519Z,40.10
2018-07-30T14:10:28.440Z,38.70
2018-07-30T14:12:58.024Z,39.20
2018-07-30T14:15:27.625Z,39.60
2018-07-30T14:17:57.516Z,39.90
2018-07-30T14:20:27.126Z,40.40
2018-07-30T14:22:56.772Z,39.00
2018-07-30T14:25:26.588Z,42.20
2018-07-30T14:27:56.227Z,39.40
2018-07-30T14:30:25.845Z,39.50
2018-07-30T14:32:55.755Z,38.70
2018-07-30T14:35:25.481Z,38.40
2018-07-30T14:37:55.060Z,36.50
2018-07-30T14:40:24.590Z,37.20
2018-07-30T14:42:54.136Z,37.70
2018-07-30T14:45:23.632Z,37.10
2018-07-30T14:47:53.745Z,36.90
2018-07-30T14:50:23.400Z,37.00
2018-07-30T14:52:52.968Z,36.30
2018-07-30T14:55:22.630Z,36.30
2018-07-30T14:57:52.183Z,36.60
2018-07-30T15:00:22.127Z,38.40
2018-07-30T15:02:51.735Z,38.10
2018-07-30T15:05:21.921Z,37.60
2018-07-30T15:08:00.660Z,39.90
2018-07-30T15:10:30.241Z,37.80
2018-07-30T15:13:11.900Z,38.00
2018-07-30T15:15:43.602Z,38.20
2018-07-30T15:18:13.460Z,38.40
2018-07-30T15:20:43.038Z,39.70
2018-07-30T15:23:12.572Z,39.20
2018-07-30T15:25:42.560Z,38.70
2018-07-30T15:28:24.963Z,38.70
2018-07-30T15:30:57.164Z,38.80
2018-07-30T15:33:28.661Z,42.00
2018-07-30T15:36:11.638Z,39.40
2018-07-30T15:38:41.213Z,40.20
2018-07-30T15:41:10.882Z,39.60
2018-07-30T15:43:40.915Z,43.50
2018-07-30T15:46:10.776Z,39.50
2018-07-30T15:48:40.360Z,40.00
2018-07-30T15:51:18.945Z,39.60
2018-07-30T15:53:48.531Z,38.50
2018-07-30T15:56:18.633Z,39.50
2018-07-30T15:58:48.936Z,38.50
2018-07-30T16:01:21.410Z,40.80
2018-07-30T16:03:52.808Z,38.00
2018-07-30T16:06:22.476Z,38.40
2018-07-30T16:09:02.043Z,37.00
2018-07-30T16:11:31.648Z,37.80
2018-07-30T16:14:01.640Z,37.10
2018-07-30T16:16:31.324Z,36.30
2018-07-30T16:19:12.850Z,36.20
2018-07-30T16:21:53.714Z,36.60
2018-07-30T16:24:23.405Z,36.60
2018-07-30T16:26:53.286Z,37.80
2018-07-30T16:29:22.828Z,37.00
2018-07-30T16:31:52.464Z,38.50
2018-07-30T16:34:31.286Z,38.70
2018-07-30T16:37:00.937Z,38.00
2018-07-30T16:39:30.807Z,38.00
2018-07-30T16:42:12.273Z,40.10
2018-07-30T16:44:42.318Z,40.00
2018-07-30T16:47:12.105Z,39.10
2018-07-30T16:49:52.764Z,40.00
2018-07-30T16:52:22.701Z,40.70
2018-07-30T16:54:52.543Z,39.50
2018-07-30T16:57:22.436Z,40.90
2018-07-30T16:59:53.196Z,41.70
2018-07-30T17:02:23.018Z,39.60
2018-07-30T17:04:52.550Z,39.70
2018-07-30T17:09:52.542Z,40.80
2018-07-30T17:12:22.149Z,39.60
2018-07-30T17:14:52.320Z,38.80
2018-07-30T17:17:33.448Z,38.40
2018-07-30T17:20:08.811Z,39.50
2018-07-30T17:22:44.306Z,38.70
2018-07-30T17:25:14.272Z,38.60
2018-07-30T17:27:43.918Z,39.60
2018-07-30T17:30:13.610Z,41.70
2018-07-30T17:32:43.648Z,42.40
2018-07-30T17:35:25.065Z,39.10
2018-07-30T17:37:54.908Z,41.80
2018-07-30T17:40:24.423Z,42.80
2018-07-30T17:42:54.116Z,42.00
2018-07-30T17:45:23.986Z,40.60
2018-07-30T17:47:53.709Z,42.00
2018-07-30T17:50:23.439Z,41.80
2018-07-30T17:52:53.288Z,40.60
2018-07-30T17:55:22.865Z,44.20
2018-07-30T18:00:42.400Z,43.90
2018-07-30T18:03:11.953Z,40.30
2018-07-30T18:05:41.820Z,39.70
2018-07-30T18:08:25.013Z,40.30
2018-07-30T18:10:54.597Z,42.30
2018-07-30T18:13:24.489Z,43.80
2018-07-30T18:16:05.509Z,45.40
2018-07-30T18:18:35.612Z,43.60
2018-07-30T18:21:05.211Z,45.80
2018-07-30T18:23:35.042Z,41.00
2018-07-30T18:26:09.973Z,42.30
2018-07-30T18:28:40.054Z,44.10
2018-07-30T18:31:09.872Z,43.20
2018-07-30T18:33:40.221Z,44.40
2018-07-30T18:36:10.038Z,46.90
2018-07-30T18:38:39.860Z,45.00
2018-07-30T18:41:23.629Z,47.50
2018-07-30T18:44:07.219Z,47.00
2018-07-30T18:46:44.749Z,43.50
2018-07-30T18:49:14.561Z,44.60
2018-07-30T18:54:13.800Z,44.70
2018-07-30T18:56:50.699Z,45.80
2018-07-30T18:59:20.880Z,46.00
2018-07-30T19:01:56.223Z,46.50
2018-07-30T19:04:25.855Z,46.60
2018-07-30T19:06:55.710Z,47.20
2018-07-30T19:09:25.385Z,47.40
2018-07-30T19:11:55.797Z,48.10
2018-07-30T19:14:25.958Z,48.00
2018-07-30T19:17:11.504Z,48.60
2018-07-30T19:21:04.368Z,48.50
2018-07-30T19:23:34.974Z,49.20
2018-07-30T19:26:21.735Z,50.20
2018-07-30T19:28:55.760Z,50.10
2018-07-30T19:31:25.788Z,50.20
2018-07-30T19:34:01.445Z,50.30
2018-07-30T19:36:36.548Z,51.00
2018-07-30T19:39:10.045Z,51.00
2018-07-30T19:41:40.265Z,51.80
2018-07-30T19:44:23.630Z,55.70
2018-07-30T19:46:58.494Z,57.40
2018-07-30T19:49:28.003Z,56.70
2018-07-30T19:51:57.619Z,56.40
2018-07-30T19:54:40.400Z,57.70
2018-07-30T19:59:39.519Z,59.20
2018-07-30T20:02:09.392Z,59.00
2018-07-30T20:04:39.626Z,59.90
2018-07-30T20:07:09.300Z,60.60
2018-07-30T20:09:38.895Z,61.00
2018-07-30T20:12:17.821Z,59.90
2018-07-30T20:14:52.969Z,61.70
2018-07-30T20:17:22.904Z,62.10
2018-07-30T20:19:53.022Z,61.80
2018-07-30T20:22:31.538Z,61.80
2018-07-30T20:25:01.681Z,61.80
2018-07-30T20:27:31.256Z,62.60
2018-07-30T20:30:00.889Z,62.80
2018-07-30T20:32:30.806Z,61.20
2018-07-30T20:35:00.718Z,62.70
2018-07-30T20:37:30.889Z,63.40
2018-07-30T20:40:00.841Z,59.50
2018-07-30T20:42:30.548Z,62.30
2018-07-30T20:45:00.327Z,58.90
2018-07-30T20:47:30.446Z,63.00
2018-07-30T20:50:00.825Z,59.10
2018-07-30T20:52:39.124Z,59.50
2018-07-30T20:55:08.976Z,59.10
2018-07-30T20:57:38.616Z,59.40
2018-07-30T21:00:08.246Z,59.50
2018-07-30T21:02:38.184Z,59.50
2018-07-30T21:05:08.149Z,60.20
2018-07-30T21:07:51.620Z,61.30
2018-07-30T21:10:21.456Z,60.20
2018-07-30T21:12:51.092Z,60.40
2018-07-30T21:15:23.313Z,60.70
2018-07-30T21:17:53.336Z,60.70
2018-07-30T21:20:23.253Z,61.40
2018-07-30T21:25:22.270Z,62.00
2018-07-30T21:28:18.935Z,62.30
2018-07-30T21:30:48.712Z,62.50
2018-07-30T21:33:18.244Z,63.20
2018-07-30T21:35:48.024Z,64.20
2018-07-30T21:38:18.068Z,63.00
2018-07-30T21:40:47.733Z,62.80
2018-07-30T21:43:17.717Z,63.00
2018-07-30T21:45:47.327Z,63.10
2018-07-30T21:48:16.889Z,64.50
2018-07-30T21:50:55.748Z,63.30
2018-07-30T21:53:29.768Z,63.50
2018-07-30T21:55:59.729Z,64.60
2018-07-30T21:58:29.305Z,66.00
2018-07-30T22:00:59.372Z,64.60
2018-07-30T22:03:29.407Z,66.90
2018-07-30T22:05:59.991Z,65.00
2018-07-30T22:08:29.812Z,66.80
2018-07-30T22:10:59.782Z,65.70
2018-07-30T22:13:29.387Z,64.90
2018-07-30T22:16:12.787Z,65.00
2018-07-30T22:18:49.232Z,65.40
2018-07-30T22:21:24.262Z,65.70
2018-07-30T22:23:54.457Z,65.80
2018-07-30T22:26:24.111Z,66.50
2018-07-30T22:28:53.727Z,68.00
2018-07-30T22:31:23.628Z,67.20
2018-07-30T22:34:11.973Z,67.00
2018-07-30T22:36:42.207Z,67.00
2018-07-30T22:39:13.111Z,67.40
2018-07-30T22:41:43.277Z,69.20
2018-07-30T22:44:13.162Z,67.90
2018-07-30T22:46:42.905Z,68.50
2018-07-30T22:49:12.664Z,68.20
2018-07-30T22:51:42.766Z,68.30
2018-07-30T22:54:21.752Z,68.60
2018-07-30T22:57:07.507Z,68.90
2018-07-30T22:59:52.733Z,69.30
2018-07-30T23:02:31.559Z,69.50
2018-07-30T23:05:01.162Z,69.70
2018-07-30T23:07:37.529Z,69.70
2018-07-30T23:10:13.176Z,69.80
2018-07-30T23:12:43.181Z,69.80
2018-07-30T23:15:12.792Z,71.00
2018-07-30T23:17:42.405Z,71.40
2018-07-30T23:20:12.372Z,71.30
2018-07-30T23:22:41.916Z,70.90
2018-07-30T23:25:11.541Z,70.20
2018-07-30T23:27:41.656Z,70.10
2018-07-30T23:30:11.171Z,70.00
2018-07-30T23:32:41.126Z,70.20
2018-07-30T23:35:10.976Z,69.80
2018-07-30T23:37:40.759Z,70.10
2018-07-30T23:40:10.302Z,70.10
2018-07-30T23:42:40.242Z,70.00
2018-07-30T23:45:09.725Z,70.10
2018-07-30T23:47:39.982Z,70.80
2018-07-30T23:50:23.788Z,71.70
2018-07-30T23:52:53.325Z,71.50
2018-07-30T23:55:23.181Z,71.50
2018-07-30T23:58:04.224Z,71.30
